Terminal Aerodrome Forecast
Issued by NWS Melbourne, FL

Home | Current Version | Previous Version | Text Only | Print | Product List | Glossary On
Versions: 1 2 3 4 5 6 7 8
908
FTUS42 KMLB 232345
TAFDAB
TAF
KDAB 232345Z 2400/2424 12009KT P6SM FEW035 SCT080 BKN200
     FM240200 17002KT P6SM SCT250
     FM240900 24005KT P6SM FEW020
     FM241200 26009KT P6SM SCT030
      TEMPO 2413/2415 BKN035
     FM241800 26016G24KT P6SM SCT040=

USA.gov is the U.S. government's official web portal to all federal, state and local government web resources and services.